EEEI

Details ICAO EEEI
Name AMARI
Region Estonia
Timezone Europe/Tallinn (UTC+3.0)
Plans Departing 12
Arriving 14
Stats Elevation 65 ft / 20 m (AMSL)
Location 59.260295° 24.208504°
Runways 1
Magnetic Variation 8.432° E
Sunrise 2018-05-22 01:37:48 UTC / 2018-05-22 04:37:48 Local
Sunset 2018-05-22 19:04:42 UTC / 2018-05-22 22:04:42 Local
Advertisement - Login to hide

Runways

ID Width Length Bearing (true) Bearing (mag) Surface Threshold Offset Overrun Length
07 148 ft / 45 m 6,557 ft / 1,999 m 70.64° 62.21° Concrete 0 ft / 0 m 0 ft / 0 m
25 148 ft / 45 m 6,557 ft / 1,999 m 250.67° 242.24° Concrete 0 ft / 0 m 0 ft / 0 m

Map

Weather


0- 5 10 15 20 25 30 35+ Temperature / ° C

Clouds and Precipitation
Forecast for 2018-05-22 18:00 UTC. Updated 2 hours ago

Ground ~20,000 ft ~40,000 ft Winds

METAR

EEEI 221750Z 25005KT CAVOK 18/10 Q1018 NOSIG

TAF

TAF EEEI 221730Z 2218/2318 VRB02KT CAVOK BECMG 2221/2223 28008KT PROB40 TEMP0 2221/2303 5000 RA SCT035

Frequencies

Tower 120.90 MHz INFO
Warning: Do not use this data for real-world aviation or navigation. No guarantee of current accuracy is given.